FFT3107 KSTL-KLAS
Flight info
| Callsign | FFT3107 |
|---|---|
| Flight time | N/A |
| Altitude | 32000 |
| Route | BGOOD5 VIH CROCK J112 BUM J110 RSK J64 TBC HAHAA RKSTR4 |
| Aircraft | A20N/M-SDE2E3FGHIJ1RWXY/LB1 |
Departure
| Time | 2026-05-06 02:39 |
|---|---|
| Airport | St. Louis Lambert International Airport (KSTL) |
Arrival
| Time | N/A |
|---|---|
| Airport | Harry Reid International Airport (KLAS) |
| Time | Latitude | Longitude | Altitude | Speed | Heading |
|---|---|---|---|---|---|
| 2026-05-06 01:44 | 38.74161 | -90.36209 | 552 ft | 0 kts | 32° |
| 2026-05-06 02:27 | 38.74160 | -90.36209 | 552 ft | 0 kts | 32° |
| 2026-05-06 02:28 | 38.74155 | -90.36214 | 552 ft | 2 kts | 32° |
| 2026-05-06 02:28 | 38.74142 | -90.36224 | 552 ft | 2 kts | 32° |
| 2026-05-06 02:28 | 38.74130 | -90.36234 | 552 ft | 2 kts | 32° |
| 2026-05-06 02:28 | 38.74117 | -90.36243 | 552 ft | 1 kts | 36° |
| 2026-05-06 02:29 | 38.74112 | -90.36256 | 552 ft | 1 kts | 102° |
| 2026-05-06 02:29 | 38.74114 | -90.36262 | 552 ft | 0 kts | 124° |
| 2026-05-06 02:29 | 38.74108 | -90.36247 | 552 ft | 1 kts | 123° |
| 2026-05-06 02:29 | 38.74105 | -90.36242 | 552 ft | 0 kts | 123° |
| 2026-05-06 02:33 | 38.74058 | -90.36149 | 552 ft | 11 kts | 122° |
| 2026-05-06 02:34 | 38.74009 | -90.36048 | 551 ft | 14 kts | 122° |
| 2026-05-06 02:34 | 38.73963 | -90.35940 | 551 ft | 12 kts | 93° |
| 2026-05-06 02:34 | 38.74025 | -90.35870 | 551 ft | 12 kts | 35° |
| 2026-05-06 02:34 | 38.74058 | -90.35800 | 551 ft | 9 kts | 109° |
| 2026-05-06 02:35 | 38.74022 | -90.35727 | 552 ft | 10 kts | 123° |
| 2026-05-06 02:35 | 38.74030 | -90.35650 | 552 ft | 10 kts | 41° |
| 2026-05-06 02:35 | 38.74021 | -90.35569 | 553 ft | 10 kts | 124° |
| 2026-05-06 02:35 | 38.73980 | -90.35489 | 555 ft | 10 kts | 121° |
| 2026-05-06 02:36 | 38.73941 | -90.35407 | 556 ft | 11 kts | 121° |
| 2026-05-06 02:36 | 38.73898 | -90.35320 | 559 ft | 11 kts | 122° |
| 2026-05-06 02:36 | 38.73852 | -90.35226 | 562 ft | 13 kts | 122° |
| 2026-05-06 02:36 | 38.73803 | -90.35125 | 566 ft | 13 kts | 122° |
| 2026-05-06 02:37 | 38.73752 | -90.35024 | 570 ft | 13 kts | 123° |
| 2026-05-06 02:37 | 38.73704 | -90.34927 | 576 ft | 12 kts | 122° |
| 2026-05-06 02:37 | 38.73661 | -90.34841 | 580 ft | 10 kts | 122° |
| 2026-05-06 02:37 | 38.73661 | -90.34765 | 583 ft | 8 kts | 49° |
| 2026-05-06 02:38 | 38.73708 | -90.34723 | 584 ft | 7 kts | 32° |
| 2026-05-06 02:38 | 38.73749 | -90.34690 | 585 ft | 7 kts | 32° |
| 2026-05-06 02:38 | 38.73796 | -90.34687 | 585 ft | 9 kts | 308° |
| 2026-05-06 02:38 | 38.73852 | -90.34796 | 579 ft | 31 kts | 301° |
| 2026-05-06 02:39 | 38.74108 | -90.35317 | 557 ft | 104 kts | 303° |
| 2026-05-06 02:39 | 38.74610 | -90.36334 | 550 ft | 160 kts | 303° |
| 2026-05-06 02:39 | 38.75222 | -90.37582 | 1026 ft | 168 kts | 304° |
| 2026-05-06 02:39 | 38.75828 | -90.38844 | 1671 ft | 170 kts | 306° |
| 2026-05-06 02:40 | 38.76454 | -90.40136 | 2380 ft | 170 kts | 308° |
| 2026-05-06 02:40 | 38.77073 | -90.41473 | 2867 ft | 177 kts | 309° |
| 2026-05-06 02:40 | 38.77761 | -90.42861 | 3228 ft | 191 kts | 311° |
| 2026-05-06 02:40 | 38.78373 | -90.44479 | 3546 ft | 219 kts | 287° |
| 2026-05-06 02:41 | 38.78144 | -90.46562 | 3793 ft | 256 kts | 246° |
| 2026-05-06 02:41 | 38.77088 | -90.48510 | 4254 ft | 275 kts | 236° |
| 2026-05-06 02:41 | 38.75928 | -90.50480 | 4955 ft | 280 kts | 235° |
| 2026-05-06 02:41 | 38.74646 | -90.52329 | 5875 ft | 279 kts | 226° |
| 2026-05-06 02:42 | 38.73193 | -90.53923 | 6796 ft | 276 kts | 221° |
| 2026-05-06 02:42 | 38.71670 | -90.55458 | 7736 ft | 273 kts | 221° |
| 2026-05-06 02:42 | 38.70206 | -90.56924 | 8631 ft | 269 kts | 222° |
| 2026-05-06 02:42 | 38.68765 | -90.58381 | 9508 ft | 265 kts | 223° |
| 2026-05-06 02:43 | 38.67342 | -90.59833 | 10324 ft | 262 kts | 223° |
| 2026-05-06 02:43 | 38.65900 | -90.61316 | 10800 ft | 273 kts | 223° |
| 2026-05-06 02:43 | 38.64370 | -90.63030 | 11105 ft | 288 kts | 230° |
| 2026-05-06 02:43 | 38.63063 | -90.65044 | 11390 ft | 302 kts | 237° |
| 2026-05-06 02:44 | 38.61958 | -90.67424 | 11669 ft | 316 kts | 243° |
| 2026-05-06 02:44 | 38.60862 | -90.70110 | 12067 ft | 328 kts | 244° |
| 2026-05-06 02:44 | 38.59710 | -90.72961 | 12748 ft | 331 kts | 244° |
| 2026-05-06 02:44 | 38.58553 | -90.75826 | 13508 ft | 331 kts | 244° |
| 2026-05-06 02:45 | 38.57484 | -90.78465 | 14109 ft | 334 kts | 244° |
| 2026-05-06 02:45 | 38.56400 | -90.81154 | 14751 ft | 335 kts | 244° |
| 2026-05-06 02:45 | 38.55307 | -90.83857 | 15344 ft | 338 kts | 244° |
| 2026-05-06 02:45 | 38.54195 | -90.86600 | 15904 ft | 341 kts | 244° |
| 2026-05-06 02:46 | 38.53098 | -90.89301 | 16410 ft | 344 kts | 243° |
| 2026-05-06 02:46 | 38.51982 | -90.92050 | 16954 ft | 346 kts | 244° |
| 2026-05-06 02:46 | 38.50820 | -90.94907 | 17464 ft | 350 kts | 244° |
| 2026-05-06 02:46 | 38.49676 | -90.97723 | 17988 ft | 352 kts | 244° |
| 2026-05-06 02:47 | 38.48543 | -91.00508 | 18500 ft | 354 kts | 244° |
| 2026-05-06 02:47 | 38.47399 | -91.03310 | 18996 ft | 356 kts | 244° |
| 2026-05-06 02:47 | 38.46242 | -91.06149 | 19538 ft | 357 kts | 244° |
| 2026-05-06 02:47 | 38.45108 | -91.08926 | 20054 ft | 357 kts | 244° |
| 2026-05-06 02:48 | 38.43824 | -91.11943 | 20570 ft | 360 kts | 242° |
| 2026-05-06 02:48 | 38.42405 | -91.14922 | 21054 ft | 362 kts | 241° |
| 2026-05-06 02:48 | 38.40950 | -91.17947 | 21604 ft | 362 kts | 242° |
| 2026-05-06 02:48 | 38.39563 | -91.20836 | 22061 ft | 364 kts | 242° |
| 2026-05-06 02:49 | 38.38126 | -91.23820 | 22526 ft | 365 kts | 242° |
| 2026-05-06 02:49 | 38.36651 | -91.26884 | 22971 ft | 367 kts | 242° |
| 2026-05-06 02:49 | 38.35265 | -91.29760 | 23136 ft | 375 kts | 242° |
| 2026-05-06 02:49 | 38.33800 | -91.32793 | 23347 ft | 381 kts | 242° |
| 2026-05-06 02:50 | 38.32351 | -91.35790 | 23763 ft | 381 kts | 242° |
| 2026-05-06 02:50 | 38.30892 | -91.38800 | 24133 ft | 382 kts | 242° |
| 2026-05-06 02:50 | 38.29504 | -91.41666 | 24467 ft | 383 kts | 242° |
| 2026-05-06 02:50 | 38.27985 | -91.44796 | 24890 ft | 383 kts | 242° |
| 2026-05-06 02:51 | 38.26533 | -91.47781 | 25233 ft | 384 kts | 243° |
| 2026-05-06 02:51 | 38.25118 | -91.50706 | 25528 ft | 385 kts | 243° |
| 2026-05-06 02:51 | 38.23617 | -91.53789 | 25887 ft | 385 kts | 243° |
| 2026-05-06 02:51 | 38.22074 | -91.56965 | 26218 ft | 385 kts | 243° |
| 2026-05-06 02:52 | 38.20569 | -91.60059 | 26497 ft | 386 kts | 243° |
| 2026-05-06 02:52 | 38.19162 | -91.62949 | 26768 ft | 386 kts | 243° |
| 2026-05-06 02:52 | 38.17741 | -91.65848 | 27062 ft | 386 kts | 243° |
| 2026-05-06 02:52 | 38.16332 | -91.68806 | 27384 ft | 385 kts | 244° |
| 2026-05-06 02:53 | 38.15013 | -91.71870 | 27794 ft | 380 kts | 247° |
| 2026-05-06 02:53 | 38.13850 | -91.74860 | 28190 ft | 377 kts | 249° |
| 2026-05-06 02:53 | 38.12741 | -91.77851 | 28513 ft | 376 kts | 249° |
| 2026-05-06 02:53 | 38.11629 | -91.80823 | 28839 ft | 374 kts | 249° |
| 2026-05-06 02:54 | 38.10513 | -91.83816 | 29185 ft | 373 kts | 249° |
| 2026-05-06 02:54 | 38.09392 | -91.86826 | 29543 ft | 370 kts | 250° |
| 2026-05-06 02:54 | 38.08239 | -91.89927 | 29934 ft | 367 kts | 249° |
| 2026-05-06 02:54 | 38.07153 | -91.92842 | 30274 ft | 366 kts | 250° |
| 2026-05-06 02:55 | 38.06061 | -91.95772 | 30523 ft | 366 kts | 250° |
| 2026-05-06 02:55 | 38.04945 | -91.98774 | 30780 ft | 366 kts | 250° |
| 2026-05-06 02:55 | 38.03676 | -92.02187 | 31055 ft | 366 kts | 249° |
| 2026-05-06 02:55 | 38.02523 | -92.05267 | 31292 ft | 365 kts | 250° |
| 2026-05-06 02:56 | 38.01424 | -92.08218 | 31477 ft | 365 kts | 250° |
| 2026-05-06 02:56 | 38.00434 | -92.11348 | 31704 ft | 362 kts | 253° |
| 2026-05-06 02:56 | 37.99637 | -92.14592 | 31918 ft | 360 kts | 258° |
| 2026-05-06 02:57 | 37.98692 | -92.20818 | 31952 ft | 359 kts | 264° |
| 2026-05-06 02:57 | 37.98493 | -92.27576 | 31957 ft | 360 kts | 271° |
| 2026-05-06 02:58 | 37.99117 | -92.34322 | 31961 ft | 361 kts | 276° |
| 2026-05-06 02:58 | 38.00049 | -92.41259 | 31962 ft | 362 kts | 276° |
| 2026-05-06 02:59 | 38.01037 | -92.48424 | 31967 ft | 361 kts | 276° |
| 2026-05-06 02:59 | 38.02023 | -92.55529 | 31977 ft | 361 kts | 276° |
| 2026-05-06 03:00 | 38.02931 | -92.62038 | 31981 ft | 361 kts | 277° |
| 2026-05-06 03:00 | 38.03894 | -92.68960 | 31982 ft | 360 kts | 276° |
| 2026-05-06 03:01 | 38.04807 | -92.75620 | 31980 ft | 360 kts | 275° |
| 2026-05-06 03:01 | 38.05793 | -92.82837 | 31979 ft | 359 kts | 276° |
| 2026-05-06 03:02 | 38.06765 | -92.89995 | 31981 ft | 359 kts | 276° |
| 2026-05-06 03:02 | 38.07706 | -92.96930 | 31982 ft | 359 kts | 275° |
| 2026-05-06 03:03 | 38.08601 | -93.03578 | 31986 ft | 357 kts | 275° |
| 2026-05-06 03:03 | 38.09472 | -93.10075 | 31988 ft | 356 kts | 276° |
| 2026-05-06 03:04 | 38.10271 | -93.16016 | 31990 ft | 358 kts | 276° |
| 2026-05-06 03:04 | 38.11201 | -93.23040 | 31981 ft | 356 kts | 275° |
| 2026-05-06 03:05 | 38.12093 | -93.29748 | 31988 ft | 357 kts | 275° |
| 2026-05-06 03:05 | 38.12974 | -93.36430 | 31990 ft | 356 kts | 275° |
| 2026-05-06 03:06 | 38.13308 | -93.39008 | 31984 ft | 356 kts | 275° |